Time;durP1;ratioP1;P1;durP2;ratioP2;P2;SDS_P1;SDS_P2;PMS_P1;PMS_P2;Temp;Humidity;BMP_temperature;BMP_pressure;BME280_temperature;BME280_humidity;BME280_pressure;Samples;Min_cycle;Max_cycle;Signal;HPM_P1;HPM_P2
2023/04/05 00:02:09;;;;;;;16.63;9.50;;;;;;;1.60;97.90;94689.59;4995287;28;20327;-69
2023/04/05 00:04:37;;;;;;;14.10;8.80;;;;;;;1.58;97.25;94681.19;5029431;28;20306;-70
2023/04/05 00:07:07;;;;;;;14.07;8.73;;;;;;;1.85;96.77;94677.66;5000865;28;20226;-69
2023/04/05 00:09:32;;;;;;;13.80;8.73;;;;;;;1.70;96.86;94672.25;5022450;28;20277;-70
2023/04/05 00:11:57;;;;;;;16.30;8.93;;;;;;;1.63;96.83;94673.00;5027888;28;20849;-70
2023/04/05 00:14:23;;;;;;;12.97;8.27;;;;;;;1.73;97.21;94678.88;4996475;28;20292;-70
2023/04/05 00:16:48;;;;;;;14.77;8.50;;;;;;;1.65;96.65;94671.88;5023819;28;20991;-70
2023/04/05 00:19:14;;;;;;;14.33;8.43;;;;;;;1.71;96.66;94675.66;5012916;28;20325;-70
2023/04/05 00:21:39;;;;;;;15.37;9.43;;;;;;;1.72;97.01;94672.13;5028215;28;20241;-70
2023/04/05 00:24:06;;;;;;;15.33;8.60;;;;;;;1.96;96.43;94670.47;5032191;28;20234;-70
2023/04/05 00:26:31;;;;;;;15.10;9.20;;;;;;;2.08;96.06;94668.41;5001487;28;20280;-70
2023/04/05 00:28:57;;;;;;;14.83;8.63;;;;;;;1.82;96.85;94668.47;5014503;28;20233;-70
2023/04/05 00:31:22;;;;;;;14.73;8.83;;;;;;;1.77;96.38;94675.84;5002404;28;20710;-70
2023/04/05 00:33:48;;;;;;;13.97;8.40;;;;;;;1.81;96.11;94676.34;5030695;28;20699;-70
2023/04/05 00:36:18;;;;;;;11.83;7.33;;;;;;;1.89;95.99;94676.38;5016229;28;20260;-69
2023/04/05 00:38:44;;;;;;;13.23;7.73;;;;;;;1.79;95.84;94676.50;5014217;28;20257;-70
2023/04/05 00:41:12;;;;;;;14.43;8.47;;;;;;;1.80;95.71;94687.63;5000845;28;20658;-70
2023/04/05 00:43:38;;;;;;;13.63;8.37;;;;;;;1.97;95.24;94687.56;5013468;28;20250;-70
2023/04/05 00:46:04;;;;;;;12.20;7.00;;;;;;;1.58;95.58;94682.97;5017055;28;20742;-70
2023/04/05 00:48:30;;;;;;;11.73;7.10;;;;;;;1.72;95.17;94682.44;5016586;28;20240;-69
2023/04/05 00:50:56;;;;;;;12.67;7.27;;;;;;;1.83;95.60;94679.59;5016926;28;20225;-69
2023/04/05 00:53:21;;;;;;;13.17;7.30;;;;;;;1.77;94.92;94682.75;5007570;28;20365;-71
2023/04/05 00:55:47;;;;;;;12.47;7.20;;;;;;;1.98;95.04;94678.84;5019629;28;20233;-71
2023/04/05 00:58:18;;;;;;;12.53;7.00;;;;;;;1.80;95.27;94688.44;5013963;28;20233;-71
2023/04/05 01:01:00;;;;;;;10.30;6.70;;;;;;;1.82;95.12;94683.13;5033112;28;20272;-70
2023/04/05 01:03:26;;;;;;;10.43;6.87;;;;;;;1.84;95.66;94689.75;5020637;28;20813;-69
2023/04/05 01:06:03;;;;;;;11.20;6.80;;;;;;;1.87;95.24;94683.47;5015601;28;20253;-70
2023/04/05 01:08:51;;;;;;;10.63;6.77;;;;;;;1.80;95.09;94691.03;5004568;28;20238;-69
2023/04/05 01:11:17;;;;;;;10.80;6.30;;;;;;;1.90;95.02;94691.72;5031314;28;20240;-70
2023/04/05 01:13:45;;;;;;;10.90;6.40;;;;;;;1.86;94.89;94692.19;5018921;28;20225;-70
2023/04/05 01:16:10;;;;;;;9.50;6.33;;;;;;;1.80;95.34;94687.63;5009985;28;20238;-70
2023/04/05 01:18:36;;;;;;;9.73;6.23;;;;;;;2.07;93.90;94687.47;5016258;28;20316;-70
2023/04/05 01:21:02;;;;;;;10.43;6.67;;;;;;;2.07;94.12;94692.63;5019182;28;20238;-70
2023/04/05 01:23:30;;;;;;;9.90;6.30;;;;;;;2.05;94.32;94689.41;5034936;28;20237;-69
2023/04/05 01:26:04;;;;;;;9.30;6.23;;;;;;;1.97;94.04;94691.91;5032009;28;20249;-69
2023/04/05 01:28:30;;;;;;;9.60;6.10;;;;;;;1.88;94.83;94692.84;5026231;28;20237;-70
2023/04/05 01:31:24;;;;;;;9.63;6.00;;;;;;;1.97;94.62;94692.75;5035416;28;20241;-71
2023/04/05 01:33:58;;;;;;;8.73;5.77;;;;;;;1.85;94.24;94698.28;5027936;28;20253;-71
2023/04/05 01:36:28;;;;;;;8.73;5.80;;;;;;;1.98;93.94;94698.72;5016387;28;20632;-71
2023/04/05 01:38:54;;;;;;;8.60;5.47;;;;;;;2.09;93.90;94690.69;5018025;28;20707;-71
2023/04/05 01:41:20;;;;;;;8.40;5.53;;;;;;;2.08;93.41;94694.22;5017639;28;20254;-72
2023/04/05 01:43:46;;;;;;;8.20;5.27;;;;;;;2.00;93.49;94697.59;5024853;28;20228;-70
2023/04/05 01:46:11;;;;;;;7.00;5.10;;;;;;;1.85;93.91;94696.53;5015769;28;20264;-70
2023/04/05 01:48:37;;;;;;;8.87;5.57;;;;;;;2.01;93.23;94694.03;5023120;28;20233;-70
2023/04/05 01:51:02;;;;;;;8.10;5.30;;;;;;;2.17;93.24;94693.34;5015459;28;20233;-70
2023/04/05 01:53:28;;;;;;;7.23;4.80;;;;;;;1.89;93.40;94691.88;5021994;28;20460;-72
2023/04/05 01:56:01;;;;;;;7.23;5.10;;;;;;;1.78;93.96;94698.09;5007866;28;20317;-70
2023/04/05 01:58:26;;;;;;;6.57;4.87;;;;;;;1.87;93.32;94692.03;5032509;28;20711;-70
2023/04/05 02:00:55;;;;;;;6.57;4.67;;;;;;;1.95;93.09;94694.66;5020100;28;20376;-70
2023/04/05 02:03:24;;;;;;;7.50;4.93;;;;;;;1.98;92.80;94698.72;5015044;28;20223;-70
2023/04/05 02:05:50;;;;;;;7.97;4.93;;;;;;;1.91;93.45;94697.72;4999262;28;20254;-70
2023/04/05 02:08:16;;;;;;;10.83;4.43;;;;;;;1.92;93.64;94699.31;5014770;28;20230;-70
2023/04/05 02:10:41;;;;;;;5.50;4.33;;;;;;;1.89;92.67;94694.44;5012603;28;20237;-69
2023/04/05 02:13:07;;;;;;;5.70;4.27;;;;;;;1.87;92.83;94699.78;5017196;28;20317;-69
2023/04/05 02:15:32;;;;;;;6.17;4.63;;;;;;;1.91;92.65;94698.50;5018077;28;20233;-69
2023/04/05 02:18:00;;;;;;;6.40;4.43;;;;;;;1.86;92.91;94698.13;5032457;28;20234;-69
2023/04/05 02:20:26;;;;;;;6.07;4.53;;;;;;;1.93;92.87;94701.75;5010580;28;20268;-70
2023/04/05 02:22:52;;;;;;;6.10;4.33;;;;;;;2.00;92.65;94699.38;5004953;28;20229;-69
2023/04/05 02:25:18;;;;;;;6.57;4.80;;;;;;;2.11;93.18;94691.34;5031929;28;20249;-69
2023/04/05 02:27:43;;;;;;;5.60;4.30;;;;;;;2.07;92.51;94699.56;5001488;28;20783;-70
2023/04/05 02:30:12;;;;;;;6.30;4.20;;;;;;;1.86;92.81;94707.66;5028232;28;20300;-69
2023/04/05 02:32:37;;;;;;;5.67;4.30;;;;;;;1.87;92.75;94704.13;5030027;28;20292;-70
2023/04/05 02:35:03;;;;;;;6.00;4.53;;;;;;;1.86;92.70;94699.94;5023942;28;20237;-69
2023/04/05 02:37:29;;;;;;;5.97;4.57;;;;;;;1.92;93.30;94694.97;5006637;28;20234;-69
2023/04/05 02:39:54;;;;;;;5.53;4.43;;;;;;;1.86;93.48;94705.09;5011952;28;20238;-70
2023/04/05 02:42:20;;;;;;;6.23;4.60;;;;;;;1.69;94.16;94700.78;5032291;28;20236;-70
2023/04/05 02:44:45;;;;;;;8.10;4.30;;;;;;;1.66;93.97;94701.06;5027122;28;20994;-70
2023/04/05 02:47:11;;;;;;;6.80;4.33;;;;;;;1.81;93.41;94695.22;5014250;28;20230;-70
2023/04/05 02:49:36;;;;;;;8.27;4.50;;;;;;;1.60;93.79;94699.13;5012332;28;20239;-70
2023/04/05 02:52:02;;;;;;;5.77;3.90;;;;;;;1.72;93.47;94688.38;5003985;28;20287;-70
2023/04/05 02:54:27;;;;;;;6.37;4.10;;;;;;;1.76;93.65;94689.72;5030205;28;20408;-70
2023/04/05 02:56:53;;;;;;;5.43;4.07;;;;;;;1.73;93.61;94690.00;5021376;28;20672;-70
2023/04/05 02:59:19;;;;;;;6.20;4.13;;;;;;;1.74;93.29;94691.63;5029170;28;20241;-70
2023/04/05 03:01:45;;;;;;;5.67;4.20;;;;;;;1.72;93.54;94692.75;5012630;28;20222;-70
2023/04/05 03:04:11;;;;;;;6.07;4.50;;;;;;;1.77;93.79;94690.50;5009146;28;20311;-69
2023/04/05 03:06:37;;;;;;;6.50;4.60;;;;;;;1.90;92.99;94701.25;5021336;28;20264;-69
2023/04/05 03:09:03;;;;;;;6.70;4.93;;;;;;;1.81;94.18;94697.81;5030794;28;20313;-69
2023/04/05 03:11:28;;;;;;;7.67;4.90;;;;;;;1.92;93.68;94694.16;5011843;28;20238;-70
2023/04/05 03:13:54;;;;;;;7.53;5.07;;;;;;;1.95;94.05;94699.00;5028589;28;20225;-70
2023/04/05 03:16:20;;;;;;;7.30;4.90;;;;;;;1.84;93.68;94694.13;5014138;28;20234;-70
2023/04/05 03:18:45;;;;;;;6.43;5.00;;;;;;;1.96;93.50;94696.25;5020070;28;20217;-69
2023/04/05 03:21:11;;;;;;;8.57;4.93;;;;;;;1.74;94.61;94689.06;5013470;28;20237;-69
2023/04/05 03:23:37;;;;;;;7.13;5.00;;;;;;;1.83;94.21;94700.22;5012418;28;20874;-70
2023/04/05 03:26:03;;;;;;;7.20;5.00;;;;;;;1.70;94.33;94690.31;5000383;28;20967;-70
2023/04/05 03:28:31;;;;;;;7.47;4.80;;;;;;;1.74;94.14;94699.38;5002404;28;20232;-70
2023/04/05 03:30:56;;;;;;;7.30;5.00;;;;;;;1.71;94.23;94704.84;5014516;28;20963;-70
2023/04/05 03:33:22;;;;;;;7.07;5.00;;;;;;;1.83;94.50;94695.88;5011200;28;20344;-70
2023/04/05 03:35:47;;;;;;;7.40;4.90;;;;;;;1.91;94.02;94692.56;5005492;28;20225;-69
2023/04/05 03:38:13;;;;;;;8.27;5.20;;;;;;;1.95;94.45;94693.84;5001209;28;20711;-70
2023/04/05 03:40:38;;;;;;;6.30;4.63;;;;;;;1.84;94.09;94696.69;5018213;28;20248;-69
2023/04/05 03:43:04;;;;;;;6.90;4.73;;;;;;;1.77;94.50;94699.06;5028860;28;20230;-70
2023/04/05 03:45:30;;;;;;;7.10;4.20;;;;;;;1.66;94.54;94698.50;4994074;28;20237;-70
2023/04/05 03:47:56;;;;;;;6.00;4.50;;;;;;;1.84;94.07;94707.81;4995255;28;20234;-70
2023/04/05 03:50:21;;;;;;;6.27;4.33;;;;;;;1.78;94.94;94712.78;4989554;28;20238;-70
2023/04/05 03:52:47;;;;;;;6.23;4.53;;;;;;;1.87;94.75;94709.28;4989753;28;20281;-69
2023/04/05 03:55:15;;;;;;;6.23;4.43;;;;;;;1.84;94.55;94712.97;4985851;28;20289;-70
2023/04/05 03:57:41;;;;;;;8.07;4.73;;;;;;;1.86;94.73;94710.25;4981060;28;20264;-70
2023/04/05 04:00:13;;;;;;;7.43;4.77;;;;;;;1.75;95.79;94719.03;4982535;28;20258;-70
2023/04/05 04:02:46;;;;;;;6.90;4.70;;;;;;;1.63;97.98;94725.41;4984584;28;20318;-70
2023/04/05 04:05:11;;;;;;;7.87;4.77;;;;;;;1.70;98.82;94723.84;4995260;28;20230;-70
2023/04/05 04:07:37;;;;;;;6.70;4.67;;;;;;;1.65;98.26;94727.84;5010776;28;20318;-69
2023/04/05 04:10:04;;;;;;;6.43;4.63;;;;;;;1.80;98.17;94731.47;5005590;28;20221;-70
2023/04/05 04:12:29;;;;;;;5.83;4.20;;;;;;;1.64;98.43;94731.38;5012561;28;20315;-70
2023/04/05 04:14:55;;;;;;;5.83;4.43;;;;;;;1.75;98.29;94718.22;4997405;28;20726;-70
2023/04/05 04:17:27;;;;;;;6.10;4.30;;;;;;;1.64;98.53;94721.88;5022049;28;20230;-71
2023/04/05 04:19:53;;;;;;;5.47;4.07;;;;;;;1.69;98.09;94727.38;5030542;28;20237;-70
2023/04/05 04:22:19;;;;;;;5.80;4.13;;;;;;;1.67;97.84;94731.06;5002780;28;20241;-70
2023/04/05 04:24:48;;;;;;;6.17;4.20;;;;;;;1.62;97.42;94730.72;5004745;28;20959;-69
2023/04/05 04:27:15;;;;;;;7.33;5.07;;;;;;;1.77;97.83;94726.63;4999096;28;20265;-69
2023/04/05 04:29:45;;;;;;;7.07;5.07;;;;;;;1.89;98.06;94730.56;5008954;28;20290;-69
2023/04/05 04:32:11;;;;;;;9.23;6.00;;;;;;;2.07;96.89;94731.34;5016618;28;20781;-70
2023/04/05 04:34:43;;;;;;;10.60;6.07;;;;;;;2.01;97.82;94729.34;5030855;28;20878;-70
2023/04/05 04:37:17;;;;;;;6.10;4.70;;;;;;;2.05;97.25;94734.06;5033374;28;20230;-69
2023/04/05 04:39:46;;;;;;;7.17;5.00;;;;;;;1.93;97.26;94732.72;5018103;28;20268;-70
2023/04/05 04:42:12;;;;;;;6.63;5.10;;;;;;;1.87;98.08;94732.50;5006967;28;20236;-70
2023/04/05 04:44:38;;;;;;;6.23;4.70;;;;;;;1.79;97.63;94732.47;5017167;28;20226;-69
2023/04/05 04:47:11;;;;;;;6.90;4.30;;;;;;;1.86;97.21;94741.22;5035268;28;20241;-70
2023/04/05 04:49:38;;;;;;;5.80;4.37;;;;;;;1.89;97.52;94727.97;5019470;28;20233;-70
2023/04/05 04:52:03;;;;;;;6.07;4.30;;;;;;;1.92;97.38;94741.41;5033096;28;20229;-70
2023/04/05 04:54:29;;;;;;;4.90;3.70;;;;;;;1.90;96.97;94732.19;5041057;28;20233;-70
2023/04/05 04:56:56;;;;;;;5.00;3.67;;;;;;;1.95;95.85;94737.72;5018366;28;20222;-70
2023/04/05 04:59:21;;;;;;;4.20;3.60;;;;;;;2.01;95.68;94729.34;5007823;28;20582;-70
2023/04/05 05:01:47;;;;;;;5.17;3.67;;;;;;;2.05;95.49;94734.06;5015090;28;20232;-69
2023/04/05 05:04:12;;;;;;;4.47;3.27;;;;;;;2.19;94.96;94737.03;5016786;28;20229;-70
2023/04/05 05:06:38;;;;;;;4.10;3.00;;;;;;;2.11;94.33;94735.22;5019855;28;20229;-70
2023/04/05 05:09:04;;;;;;;7.97;3.50;;;;;;;2.19;95.18;94737.84;5004030;28;20245;-70
2023/04/05 05:11:30;;;;;;;5.87;3.30;;;;;;;2.19;95.13;94739.63;5017525;28;20237;-70
2023/04/05 05:13:56;;;;;;;5.30;3.83;;;;;;;2.26;94.55;94738.88;5030946;28;20232;-70
2023/04/05 05:16:22;;;;;;;4.03;3.27;;;;;;;2.13;94.82;94738.47;5029936;28;20226;-70
2023/04/05 05:18:51;;;;;;;3.67;2.80;;;;;;;2.06;93.73;94742.59;5020539;28;20260;-71
2023/04/05 05:21:17;;;;;;;4.10;3.00;;;;;;;2.07;94.67;94743.44;5021471;28;20726;-70
2023/04/05 05:23:42;;;;;;;3.83;2.80;;;;;;;2.06;94.55;94750.34;5009946;28;20344;-70
2023/04/05 05:26:07;;;;;;;3.53;2.70;;;;;;;2.00;94.07;94748.41;5005516;28;20622;-70
2023/04/05 05:28:33;;;;;;;4.67;3.23;;;;;;;1.97;94.26;94746.94;5019904;28;20233;-70
2023/04/05 05:30:58;;;;;;;5.00;3.70;;;;;;;2.08;94.05;94758.75;5029337;28;20238;-69
2023/04/05 05:33:24;;;;;;;4.80;3.10;;;;;;;2.07;93.65;94753.75;5012998;28;20230;-71
2023/04/05 05:35:50;;;;;;;4.60;3.20;;;;;;;1.92;93.05;94761.22;5020951;28;20237;-71
2023/04/05 05:38:16;;;;;;;4.20;3.27;;;;;;;2.15;93.07;94762.34;5013341;28;20747;-70
2023/04/05 05:40:42;;;;;;;4.60;3.33;;;;;;;2.13;93.43;94755.72;5037420;28;20241;-70
2023/04/05 05:43:09;;;;;;;5.67;3.03;;;;;;;2.14;93.75;94755.56;5017010;28;20622;-70
2023/04/05 05:45:35;;;;;;;3.97;2.70;;;;;;;2.20;92.79;94749.00;5016431;28;20233;-70
2023/04/05 05:48:00;;;;;;;4.97;3.40;;;;;;;2.22;92.46;94742.69;5018927;28;20232;-70
2023/04/05 05:50:26;;;;;;;4.73;3.27;;;;;;;2.19;92.17;94748.19;5004406;28;20241;-70
2023/04/05 05:52:52;;;;;;;4.20;2.90;;;;;;;2.39;91.85;94744.41;5007358;28;20233;-70
2023/04/05 05:55:17;;;;;;;4.53;3.00;;;;;;;2.44;91.56;94739.59;5024105;28;20233;-71
2023/04/05 05:57:43;;;;;;;3.77;2.87;;;;;;;2.65;90.79;94736.63;5013117;28;20249;-71
2023/04/05 06:00:10;;;;;;;8.50;4.60;;;;;;;2.59;91.31;94737.22;5014889;28;20234;-70
2023/04/05 06:02:35;;;;;;;6.57;4.13;;;;;;;2.82;91.06;94738.28;5025003;28;20236;-71
2023/04/05 06:05:01;;;;;;;3.90;2.53;;;;;;;2.67;89.07;94735.47;5018397;28;20623;-69
2023/04/05 06:07:27;;;;;;;3.27;2.57;;;;;;;2.68;89.59;94750.03;5012107;28;20238;-70
2023/04/05 06:09:52;;;;;;;5.87;3.20;;;;;;;2.89;88.82;94739.25;5030109;28;20234;-71
2023/04/05 06:12:20;;;;;;;8.50;4.37;;;;;;;2.69;88.94;94750.84;5018282;28;20226;-71
2023/04/05 06:14:45;;;;;;;3.53;2.60;;;;;;;2.89;87.90;94747.00;5013043;28;20229;-71
2023/04/05 06:17:11;;;;;;;4.60;3.03;;;;;;;2.77;88.31;94748.25;5007567;28;20233;-72
2023/04/05 06:19:36;;;;;;;9.00;4.50;;;;;;;2.84;88.90;94758.81;5000715;28;20233;-72
2023/04/05 06:22:02;;;;;;;3.47;2.57;;;;;;;2.65;88.21;94762.47;5031357;28;20605;-72
2023/04/05 06:24:30;;;;;;;3.50;2.60;;;;;;;2.68;87.63;94764.72;5023995;28;20906;-72
2023/04/05 06:27:00;;;;;;;6.03;3.03;;;;;;;2.73;87.02;94759.88;5032967;28;20301;-72
2023/04/05 06:29:25;;;;;;;3.43;2.23;;;;;;;2.62;86.87;94765.34;5014732;28;20723;-72
2023/04/05 06:31:51;;;;;;;4.60;3.07;;;;;;;2.69;87.20;94771.50;5004962;28;20244;-72
2023/04/05 06:34:19;;;;;;;5.60;2.83;;;;;;;2.74;86.85;94764.09;5016880;28;20633;-71
2023/04/05 06:36:45;;;;;;;5.20;2.40;;;;;;;2.85;86.51;94761.22;5025063;28;20234;-69
2023/04/05 06:39:10;;;;;;;5.70;2.50;;;;;;;2.90;86.37;94753.00;5024486;28;20286;-70
2023/04/05 06:41:36;;;;;;;7.03;3.00;;;;;;;3.02;86.68;94767.25;5000744;28;20250;-70
2023/04/05 06:44:01;;;;;;;10.83;4.47;;;;;;;3.23;85.61;94775.38;5015604;28;20226;-71
2023/04/05 06:46:27;;;;;;;6.37;3.00;;;;;;;3.02;85.81;94778.41;5012942;28;20237;-70
2023/04/05 06:48:53;;;;;;;5.10;2.70;;;;;;;3.28;84.74;94776.53;5018340;28;21204;-71
2023/04/05 06:51:18;;;;;;;3.47;2.50;;;;;;;3.34;85.24;94783.63;5033496;28;20230;-70
2023/04/05 06:53:44;;;;;;;2.80;2.40;;;;;;;3.49;84.99;94780.47;5017942;28;21311;-70
2023/04/05 06:56:10;;;;;;;3.20;2.40;;;;;;;3.96;83.94;94787.41;5009377;28;20243;-70
2023/04/05 06:58:35;;;;;;;3.10;2.13;;;;;;;3.82;82.33;94790.66;5014747;28;20234;-70
2023/04/05 07:01:01;;;;;;;5.00;2.50;;;;;;;3.90;81.59;94795.84;5008603;28;20316;-70
2023/04/05 07:03:26;;;;;;;3.27;2.47;;;;;;;3.95;81.14;94787.56;5016427;28;20225;-70
2023/04/05 07:05:57;;;;;;;4.23;2.40;;;;;;;3.86;81.51;94801.50;5035153;28;20229;-70
2023/04/05 07:08:23;;;;;;;2.83;2.20;;;;;;;3.70;82.65;94806.66;5006112;28;20233;-70
2023/04/05 07:10:52;;;;;;;3.13;2.30;;;;;;;3.72;81.79;94807.31;4999069;28;20299;-70
2023/04/05 07:13:18;;;;;;;3.60;2.40;;;;;;;3.51;81.40;94799.22;5017077;28;20241;-70
2023/04/05 07:15:44;;;;;;;3.23;2.70;;;;;;;3.39;82.63;94799.50;5001410;28;20238;-70
2023/04/05 07:18:09;;;;;;;3.17;2.27;;;;;;;3.39;82.46;94809.06;5000147;28;20236;-70
2023/04/05 07:20:35;;;;;;;3.10;2.40;;;;;;;3.44;82.68;94811.94;5005061;28;20234;-70
2023/04/05 07:23:01;;;;;;;3.43;2.23;;;;;;;3.50;81.91;94815.69;5033239;28;20631;-70
2023/04/05 07:25:26;;;;;;;2.50;2.20;;;;;;;3.44;82.07;94817.13;5038974;28;20631;-70
2023/04/05 07:27:52;;;;;;;3.97;2.37;;;;;;;3.44;83.08;94818.94;5019393;28;20226;-69
2023/04/05 07:30:17;;;;;;;3.57;2.20;;;;;;;3.52;82.57;94814.56;5015899;28;20229;-69
2023/04/05 07:32:43;;;;;;;6.20;2.27;;;;;;;3.64;81.80;94810.69;5014281;28;20226;-70
2023/04/05 07:35:09;;;;;;;5.03;2.20;;;;;;;3.60;80.81;94821.53;5013762;28;20245;-70
2023/04/05 07:37:35;;;;;;;3.93;2.50;;;;;;;3.52;81.08;94822.31;5015506;28;20230;-71
2023/04/05 07:40:00;;;;;;;3.57;2.10;;;;;;;3.63;81.54;94824.59;5020296;28;20990;-70
2023/04/05 07:42:26;;;;;;;3.23;2.40;;;;;;;3.56;81.49;94818.44;5014018;28;20284;-70
2023/04/05 07:44:52;;;;;;;4.33;2.67;;;;;;;3.82;81.10;94829.47;5016195;28;20715;-70
2023/04/05 07:47:18;;;;;;;3.60;2.33;;;;;;;3.41;81.36;94831.19;5017975;28;20309;-71
2023/04/05 07:49:43;;;;;;;4.03;2.87;;;;;;;3.67;82.01;94833.69;5014543;28;20225;-70
2023/04/05 07:52:09;;;;;;;3.20;2.40;;;;;;;3.46;82.85;94835.91;5007476;28;20233;-70
2023/04/05 07:54:37;;;;;;;3.53;2.40;;;;;;;3.40;82.70;94850.28;5005490;28;21026;-70
2023/04/05 07:57:03;;;;;;;4.23;2.50;;;;;;;3.58;83.00;94839.81;4995521;28;20226;-69
2023/04/05 07:59:28;;;;;;;3.57;2.50;;;;;;;3.70;81.83;94842.91;5030320;28;20225;-71
2023/04/05 08:01:54;;;;;;;6.30;2.47;;;;;;;3.58;82.49;94845.00;5014905;28;20217;-71
2023/04/05 08:04:19;;;;;;;3.37;2.60;;;;;;;3.75;81.82;94851.78;5015273;28;20234;-72
2023/04/05 08:06:46;;;;;;;3.67;2.60;;;;;;;3.67;81.84;94856.16;5003568;28;20228;-72
2023/04/05 08:09:11;;;;;;;3.10;2.40;;;;;;;3.45;82.60;94843.81;5001106;28;20664;-71
2023/04/05 08:11:37;;;;;;;3.43;2.53;;;;;;;3.63;82.46;94845.28;5014677;28;20237;-70
2023/04/05 08:14:02;;;;;;;5.70;2.50;;;;;;;3.48;81.18;94865.00;5018392;28;20283;-69
2023/04/05 08:16:28;;;;;;;4.40;2.40;;;;;;;3.49;81.53;94847.72;5016819;28;20288;-70
2023/04/05 08:18:53;;;;;;;5.17;2.23;;;;;;;3.53;81.98;94857.59;5015727;28;20237;-71
2023/04/05 08:21:19;;;;;;;3.97;2.60;;;;;;;3.76;81.18;94858.59;5016428;28;20234;-71
2023/04/05 08:23:44;;;;;;;3.97;2.40;;;;;;;3.73;80.36;94865.84;5034819;28;20226;-71
2023/04/05 08:26:10;;;;;;;3.93;2.40;;;;;;;3.67;81.57;94867.31;5015379;28;20234;-71
2023/04/05 08:28:35;;;;;;;3.70;2.57;;;;;;;3.45;81.13;94872.25;5006384;28;20295;-71
2023/04/05 08:31:04;;;;;;;4.10;2.60;;;;;;;3.63;81.11;94862.63;5019122;28;21010;-70
2023/04/05 08:33:30;;;;;;;4.07;2.60;;;;;;;3.73;81.34;94871.84;5033658;28;20311;-70
2023/04/05 08:35:56;;;;;;;5.00;2.70;;;;;;;3.50;80.72;94870.81;5000735;28;20230;-70
2023/04/05 08:38:22;;;;;;;5.60;2.70;;;;;;;3.61;80.96;94869.72;5011098;28;20233;-70
2023/04/05 08:40:47;;;;;;;5.10;2.83;;;;;;;3.81;81.41;94864.09;5012437;28;21271;-71
2023/04/05 08:43:39;;;;;;;3.47;2.70;;;;;;;3.54;80.92;94879.06;5003090;28;20233;-69
2023/04/05 08:46:09;;;;;;;5.33;2.83;;;;;;;3.49;81.75;94879.53;5001987;28;20245;-69
2023/04/05 08:48:37;;;;;;;3.57;2.30;;;;;;;3.27;82.53;94874.97;5000697;28;20221;-69
2023/04/05 08:51:03;;;;;;;4.10;2.60;;;;;;;3.55;83.10;94878.94;5001996;28;20233;-70
2023/04/05 08:53:29;;;;;;;4.07;2.50;;;;;;;3.40;83.03;94878.72;4995491;28;20944;-70
2023/04/05 08:55:55;;;;;;;7.17;2.40;;;;;;;3.27;82.24;94882.72;5014019;28;20727;-70
2023/04/05 08:58:21;;;;;;;3.67;2.40;;;;;;;3.46;82.87;94884.25;5010338;28;20808;-70
2023/04/05 09:00:47;;;;;;;4.17;2.70;;;;;;;3.66;82.13;94882.97;5011138;28;20230;-70
2023/04/05 09:03:17;;;;;;;3.07;2.43;;;;;;;3.59;83.48;94889.75;5007337;28;20233;-70
2023/04/05 09:05:45;;;;;;;3.93;2.60;;;;;;;3.86;82.88;94892.91;5016558;28;20703;-70
2023/04/05 09:08:12;;;;;;;4.17;3.00;;;;;;;3.80;83.42;94897.88;5014170;28;20231;-70
2023/04/05 09:10:38;;;;;;;4.93;3.30;;;;;;;3.93;83.44;94898.25;5008161;28;20748;-69
2023/04/05 09:13:03;;;;;;;8.73;4.10;;;;;;;3.99;81.88;94901.00;5022147;28;20240;-70
2023/04/05 09:15:29;;;;;;;3.57;2.93;;;;;;;4.00;82.09;94905.22;5008786;28;20229;-70
2023/04/05 09:17:55;;;;;;;4.30;3.07;;;;;;;4.07;81.54;94910.56;5003845;28;20226;-70
2023/04/05 09:20:20;;;;;;;6.37;2.83;;;;;;;4.07;80.27;94898.44;5029429;28;20238;-70
2023/04/05 09:22:46;;;;;;;3.90;2.77;;;;;;;4.19;79.84;94903.28;5004795;28;20230;-70
2023/04/05 09:25:51;;;;;;;4.47;3.00;;;;;;;4.10;80.59;94910.25;4998025;28;20265;-70
2023/04/05 09:28:16;;;;;;;4.20;2.90;;;;;;;3.86;80.04;94903.25;5010921;28;20297;-70
2023/04/05 09:30:46;;;;;;;2.47;2.27;;;;;;;3.88;80.37;94901.31;4998765;28;20237;-71
2023/04/05 09:33:17;;;;;;;3.73;2.53;;;;;;;3.89;79.81;94899.56;5025880;28;20223;-70
2023/04/05 09:35:43;;;;;;;4.03;2.50;;;;;;;3.81;79.03;94897.75;5009242;28;20234;-70
2023/04/05 09:38:08;;;;;;;3.47;3.00;;;;;;;4.16;80.08;94890.66;5010928;28;20244;-70
2023/04/05 09:40:41;;;;;;;4.67;3.33;;;;;;;4.38;78.54;94888.25;5022725;28;20249;-69
2023/04/05 09:43:07;;;;;;;5.53;3.13;;;;;;;4.32;77.83;94890.69;5032686;28;20696;-71
2023/04/05 09:45:37;;;;;;;3.70;3.00;;;;;;;4.11;78.19;94880.78;5017325;28;20229;-71
2023/04/05 09:48:03;;;;;;;6.00;2.97;;;;;;;4.33;77.28;94889.69;5020333;28;20368;-71
2023/04/05 09:50:28;;;;;;;5.07;3.53;;;;;;;5.04;76.41;94885.38;5031227;28;20241;-71
2023/04/05 09:53:17;;;;;;;4.97;3.57;;;;;;;5.18;75.88;94882.09;5010199;28;20221;-71
2023/04/05 09:55:43;;;;;;;6.60;3.50;;;;;;;5.17;76.14;94882.25;5034313;28;20254;-71
2023/04/05 09:58:18;;;;;;;6.10;3.40;;;;;;;5.63;74.31;94886.63;4998432;28;20237;-71
2023/04/05 10:00:53;;;;;;;4.83;3.40;;;;;;;5.47;73.60;94885.88;5000898;28;20282;-70
2023/04/05 10:03:19;;;;;;;4.50;3.37;;;;;;;5.09;74.07;94883.09;5008512;28;20232;-72
2023/04/05 10:05:46;;;;;;;5.87;3.90;;;;;;;4.97;74.67;94892.19;5018378;28;20230;-70
2023/04/05 10:08:12;;;;;;;5.47;3.53;;;;;;;4.79;74.76;94891.59;5005784;28;20275;-71
2023/04/05 10:10:47;;;;;;;7.80;4.13;;;;;;;4.78;73.85;94902.16;5002685;28;20319;-68
2023/04/05 10:13:13;;;;;;;5.63;3.90;;;;;;;4.58;72.38;94897.31;5008362;28;20235;-70
2023/04/05 10:15:43;;;;;;;5.97;3.93;;;;;;;4.68;73.30;94899.72;5004966;28;20710;-70
2023/04/05 10:18:20;;;;;;;5.77;4.17;;;;;;;4.94;71.15;94895.16;5019031;28;20245;-70
2023/04/05 10:20:48;;;;;;;6.23;4.27;;;;;;;4.85;71.56;94910.88;5004026;28;20341;-71
2023/04/05 10:23:21;;;;;;;5.43;3.93;;;;;;;4.94;70.53;94908.13;4997048;28;20255;-70
2023/04/05 10:25:53;;;;;;;6.73;3.70;;;;;;;4.96;70.65;94913.94;5015200;28;20329;-70
2023/04/05 10:28:32;;;;;;;7.67;4.63;;;;;;;5.29;71.00;94905.09;5031311;28;20233;-70
2023/04/05 10:31:11;;;;;;;5.33;4.07;;;;;;;5.00;71.50;94904.03;5015308;28;20233;-72
2023/04/05 10:33:40;;;;;;;6.17;4.33;;;;;;;5.07;71.06;94895.41;5032824;28;20221;-70
2023/04/05 10:36:05;;;;;;;7.40;4.50;;;;;;;4.91;72.84;94905.84;5034456;28;20615;-70
2023/04/05 10:38:37;;;;;;;6.77;4.40;;;;;;;5.15;70.70;94892.00;5032156;28;20230;-70
2023/04/05 10:41:09;;;;;;;6.37;4.60;;;;;;;5.26;72.03;94900.22;5021046;28;20703;-70
2023/04/05 10:43:34;;;;;;;6.87;4.50;;;;;;;4.83;72.17;94892.88;5021277;28;20325;-69
2023/04/05 10:46:00;;;;;;;6.33;4.60;;;;;;;5.39;70.46;94886.72;5018484;28;20229;-70
2023/04/05 10:49:26;;;;;;;5.93;4.50;;;;;;;5.58;69.71;94901.88;5002040;28;20311;-71
2023/04/05 10:51:52;;;;;;;9.60;5.00;;;;;;;5.39;71.21;94910.09;5012820;28;20237;-70
2023/04/05 10:54:19;;;;;;;6.33;4.50;;;;;;;5.43;69.89;94916.53;5009334;28;20251;-70
2023/04/05 10:56:44;;;;;;;6.50;4.40;;;;;;;5.42;69.79;94909.75;5005328;28;20228;-71
2023/04/05 10:59:11;;;;;;;6.07;4.67;;;;;;;5.61;69.56;94911.13;5016858;28;20237;-71
2023/04/05 11:01:37;;;;;;;6.10;4.67;;;;;;;5.66;69.48;94920.00;5018680;28;20229;-69
2023/04/05 11:04:15;;;;;;;6.10;4.53;;;;;;;5.40;70.18;94916.88;5007874;28;20842;-72
2023/04/05 11:06:41;;;;;;;6.77;4.90;;;;;;;5.12;70.40;94923.44;5029411;28;20240;-71
2023/04/05 11:09:07;;;;;;;7.47;4.87;;;;;;;4.89;72.12;94923.34;5018918;28;20323;-69
2023/04/05 11:11:37;;;;;;;6.80;5.10;;;;;;;5.15;71.45;94918.75;5032010;28;20264;-70
2023/04/05 11:14:03;;;;;;;6.23;4.70;;;;;;;5.81;69.99;94912.31;5017059;28;20229;-70
2023/04/05 11:16:38;;;;;;;7.00;4.73;;;;;;;6.17;67.94;94917.81;5022280;28;20229;-69
2023/04/05 11:19:04;;;;;;;7.17;5.07;;;;;;;6.59;67.21;94920.75;5013738;28;20312;-70
2023/04/05 11:21:30;;;;;;;6.70;4.87;;;;;;;6.29;66.70;94901.66;5012077;28;20654;-70
2023/04/05 11:24:02;;;;;;;7.77;5.33;;;;;;;6.14;67.92;94908.56;5026577;28;20234;-70
2023/04/05 11:26:40;;;;;;;7.63;4.80;;;;;;;6.25;68.37;94915.97;5010425;28;20307;-70
2023/04/05 11:29:09;;;;;;;7.30;4.87;;;;;;;5.94;67.30;94912.59;5012948;28;20706;-70
2023/04/05 11:31:34;;;;;;;7.13;4.90;;;;;;;5.81;68.11;94910.53;4994997;28;20234;-69
2023/04/05 11:34:09;;;;;;;6.90;4.47;;;;;;;5.87;67.32;94903.88;4995556;28;20234;-70
2023/04/05 11:36:34;;;;;;;7.10;4.50;;;;;;;5.30;68.15;94909.28;4987231;28;20329;-70
2023/04/05 11:39:21;;;;;;;8.03;5.00;;;;;;;5.44;68.22;94907.78;5010090;28;20246;-70
2023/04/05 11:42:01;;;;;;;6.73;4.80;;;;;;;5.47;67.42;94911.84;5030041;28;20667;-71
2023/04/05 11:44:39;;;;;;;7.97;4.90;;;;;;;5.50;68.60;94906.28;5016438;28;20268;-70